Airfield :
LOGIN :

Register | Disclaimer

   EN    FR    IT 

 










Legend :    VFR   Marginal VFR   IFR   Intensive IFR   Very Intensive IFR
Visi :
Ceiling :
>= 8 km
>= 3000ft
5 to 8 km
1000 to 3000 ft
1500m to 5 km
500 to 1000 ft
800 to 1500m
200 to 500 ft
< 800m
< 200 ft
Symbols :   Thunderstorms  Fog  Heavy snow  Heavy precipitations  Wind > 20 kt
SIGMETs :     Misc.  Thunderstorms  Icing  Turbulence  Mountain Waves  Volcanic Ashes






- Airport Elevation : 267 ft


EGDR - Culdrose Navy

CURRENT METAR :
  • 191650Z AUTO 21025KT 5000 // OVC002/// 10/10 Q0999

EXPIRED METARs :
  • 191623Z 21020G33KT 0800 DZ FEW000 SCT001 OVC002 10/10 Q0999 NOSIG RMK RED RED
  • 191550Z 21020G35KT 1200 -DZ FEW000 SCT001 OVC002 10/10 Q1000 NOSIG RMK RED RED
  • 191530Z 21021G35KT 0800 -DZ FEW000 SCT001 OVC002 10/10 Q1000 NOSIG RMK RED RED
  • 191517Z 21022G35KT 1500 -DZ FEW000 OVC002 10/10 Q1000 TEMPO 0500 DZ FG BKN000 AMB TEMPO RED
  • 191450Z 21022G36KT 2500 -DZ FEW000 SCT002 OVC004 10/10 Q1001 TEMPO 0500 DZ FG BKN000 AMB TEMPO RED
  • 191422Z 21022G35KT 2000 -DZ FEW000 SCT002 OVC004 10/10 Q1001 TEMPO 0500 DZ FG BKN000 AMB TEMPO RED

TAF TAF EGDR
Valid from the 19 at 15:00 until the 20 at 00:00 UTC


191352Z 1915/1924 21025G35KT 3000 RADZ SCT003 OVC010
PROB40
TEMPO 1915/1918 231025G40KT
BECMG 1915/1916 1500 RADZ BR BKN002
TEMPO 1915/1924 0500 FG BKN000
PROB40
TEMPO 1916/1918 3000 +RA OVC004



MET'MAP, your aeronautical weather chart ! - Copyright ORBIFLY December 2007 - Disclaimer

ORBIFLY MET'MAP TEAM :

Programming & Development : Alexandra Zaïnal
Concept & original design : Baudouin d'Aumeries
Assistance for programming : Marc-Olivier Méhu
Technical & hardware support : Manuel Goepfert

Contact : metmap@orbifly.com




SOURCES & CREDITS :

   NOAA